createdAt,value
2018-08-16T00:00:26.743Z,6.90
2018-08-16T00:02:55.211Z,7.97
2018-08-16T00:05:23.525Z,8.50
2018-08-16T00:07:51.896Z,8.23
2018-08-16T00:10:21.902Z,7.60
2018-08-16T00:12:52.951Z,7.10
2018-08-16T00:15:22.431Z,7.93
2018-08-16T00:17:51.764Z,8.00
2018-08-16T00:20:20.872Z,9.53
2018-08-16T00:22:49.526Z,7.80
2018-08-16T00:25:18.130Z,7.83
2018-08-16T00:27:46.493Z,8.43
2018-08-16T00:30:16.107Z,7.33
2018-08-16T00:32:44.898Z,7.63
2018-08-16T00:35:14.075Z,7.97
2018-08-16T00:37:42.565Z,7.20
2018-08-16T00:40:13.413Z,10.10
2018-08-16T00:42:41.699Z,7.97
2018-08-16T00:45:10.966Z,8.33
2018-08-16T00:47:39.410Z,8.57
2018-08-16T00:50:15.507Z,8.73
2018-08-16T00:52:43.902Z,7.90
2018-08-16T00:55:13.447Z,10.47
2018-08-16T00:57:45.157Z,9.20
2018-08-16T01:00:15.763Z,8.60
2018-08-16T01:02:44.533Z,7.30
2018-08-16T01:05:13.313Z,8.70
2018-08-16T01:07:41.651Z,7.83
2018-08-16T01:10:11.883Z,7.00
2018-08-16T01:12:40.728Z,8.30
2018-08-16T01:15:14.664Z,8.97
2018-08-16T01:17:44.293Z,7.83
2018-08-16T01:20:14.276Z,7.43
2018-08-16T01:22:42.642Z,8.10
2018-08-16T01:25:12.037Z,7.87
2018-08-16T01:27:40.502Z,6.83
2018-08-16T01:30:09.711Z,6.97
2018-08-16T01:32:38.049Z,6.77
2018-08-16T01:35:07.014Z,6.97
2018-08-16T01:37:35.425Z,8.23
2018-08-16T01:40:04.554Z,7.17
2018-08-16T01:42:32.901Z,7.67
2018-08-16T01:45:01.354Z,8.27
2018-08-16T01:47:29.701Z,8.00
2018-08-16T01:49:58.088Z,8.43
2018-08-16T01:52:26.425Z,7.70
2018-08-16T01:54:54.784Z,7.77
2018-08-16T01:57:23.723Z,6.97
2018-08-16T01:59:52.067Z,7.27
2018-08-16T02:02:20.376Z,7.13
2018-08-16T02:04:48.706Z,7.57
2018-08-16T02:07:17.047Z,7.33
2018-08-16T02:09:45.380Z,6.60
2018-08-16T02:12:13.733Z,7.30
2018-08-16T02:14:41.997Z,7.07
2018-08-16T02:17:11.096Z,7.07
2018-08-16T02:19:40.571Z,6.80
2018-08-16T02:22:10.377Z,7.33
2018-08-16T02:24:40.223Z,7.27
2018-08-16T02:27:09.168Z,6.87
2018-08-16T02:29:38.872Z,7.10
2018-08-16T02:32:07.932Z,7.33
2018-08-16T02:34:36.246Z,6.63
2018-08-16T02:37:04.598Z,7.43
2018-08-16T02:39:32.982Z,7.60
2018-08-16T02:42:01.344Z,7.10
2018-08-16T02:44:29.748Z,6.70
2018-08-16T02:46:58.071Z,7.77
2018-08-16T02:49:26.420Z,7.90
2018-08-16T02:51:54.812Z,7.40
2018-08-16T02:54:23.376Z,7.23
2018-08-16T02:56:51.717Z,7.13
2018-08-16T02:59:19.996Z,6.80
2018-08-16T03:01:48.294Z,6.83
2018-08-16T03:04:16.570Z,7.57
2018-08-16T03:06:44.914Z,7.07
2018-08-16T03:09:13.275Z,7.40
2018-08-16T03:11:41.655Z,7.40
2018-08-16T03:14:10.183Z,7.63
2018-08-16T03:16:38.515Z,7.63
2018-08-16T03:19:06.869Z,7.20
2018-08-16T03:21:35.173Z,6.73
2018-08-16T03:24:03.586Z,7.47
2018-08-16T03:26:31.884Z,7.07
2018-08-16T03:29:00.308Z,7.23
2018-08-16T03:31:28.697Z,7.50
2018-08-16T03:33:57.069Z,7.57
2018-08-16T03:36:25.413Z,7.63
2018-08-16T03:38:53.784Z,7.53
2018-08-16T03:41:22.219Z,7.43
2018-08-16T03:43:50.526Z,7.53
2018-08-16T03:46:18.828Z,7.20
2018-08-16T03:48:47.218Z,6.93
2018-08-16T03:51:15.599Z,7.43
2018-08-16T03:53:43.900Z,7.93
2018-08-16T03:56:12.282Z,7.30
2018-08-16T03:58:40.655Z,8.00
2018-08-16T04:01:09.219Z,7.13
2018-08-16T04:03:37.517Z,7.70
2018-08-16T04:06:05.851Z,7.60
2018-08-16T04:08:34.213Z,7.63
2018-08-16T04:11:02.503Z,8.60
2018-08-16T04:13:31.085Z,8.33
2018-08-16T04:15:59.440Z,8.20
2018-08-16T04:18:27.790Z,8.63
2018-08-16T04:20:56.061Z,7.80
2018-08-16T04:23:24.452Z,8.03
2018-08-16T04:25:52.840Z,7.20
2018-08-16T04:28:21.365Z,8.00
2018-08-16T04:30:49.732Z,7.27
2018-08-16T04:33:18.009Z,7.27
2018-08-16T04:35:46.345Z,6.73
2018-08-16T04:38:14.924Z,6.77
2018-08-16T04:40:43.351Z,7.30
2018-08-16T04:43:12.056Z,7.20
2018-08-16T04:45:40.394Z,7.30
2018-08-16T04:48:08.848Z,7.87
2018-08-16T04:50:37.476Z,7.40
2018-08-16T04:53:06.356Z,7.77
2018-08-16T04:55:34.662Z,6.80
2018-08-16T04:58:02.988Z,7.00
2018-08-16T05:00:31.351Z,7.33
2018-08-16T05:02:59.674Z,7.53
2018-08-16T05:05:28.005Z,6.60
2018-08-16T05:07:56.290Z,7.13
2018-08-16T05:10:24.646Z,7.07
2018-08-16T05:12:53.349Z,7.37
2018-08-16T05:15:21.686Z,7.87
2018-08-16T05:17:50.295Z,7.77
2018-08-16T05:20:18.704Z,8.23
2018-08-16T05:22:47.111Z,7.47
2018-08-16T05:25:15.448Z,7.30
2018-08-16T05:27:43.781Z,7.60
2018-08-16T05:30:13.083Z,7.03
2018-08-16T05:32:41.587Z,7.67
2018-08-16T05:35:10.043Z,8.03
2018-08-16T05:37:38.813Z,8.87
2018-08-16T05:40:08.537Z,8.17
2018-08-16T05:42:36.931Z,8.93
2018-08-16T05:45:06.406Z,8.43
2018-08-16T05:47:34.838Z,8.63
2018-08-16T05:50:03.270Z,8.37
2018-08-16T05:52:31.620Z,7.90
2018-08-16T05:54:59.975Z,8.43
2018-08-16T05:57:28.371Z,7.63
2018-08-16T05:59:56.730Z,7.80
2018-08-16T06:02:25.427Z,8.43
2018-08-16T06:04:53.906Z,8.87
2018-08-16T06:07:22.889Z,8.23
2018-08-16T06:09:51.267Z,8.53
2018-08-16T06:12:19.585Z,7.50
2018-08-16T06:14:48.247Z,8.23
2018-08-16T06:17:16.538Z,8.30
2018-08-16T06:19:45.189Z,9.07
2018-08-16T06:22:13.581Z,7.90
2018-08-16T06:24:42.499Z,7.83
2018-08-16T06:27:10.852Z,8.00
2018-08-16T06:29:39.223Z,7.13
2018-08-16T06:32:07.663Z,7.80
2018-08-16T06:34:36.012Z,7.20
2018-08-16T06:37:04.363Z,7.20
2018-08-16T06:39:32.793Z,6.67
2018-08-16T06:42:01.242Z,7.00
2018-08-16T06:44:29.615Z,7.03
2018-08-16T06:46:58.124Z,6.27
2018-08-16T06:49:26.572Z,7.30
2018-08-16T06:51:54.928Z,6.43
2018-08-16T06:54:23.334Z,7.10
2018-08-16T06:56:51.901Z,6.43
2018-08-16T06:59:21.160Z,6.37
2018-08-16T07:01:49.683Z,6.10
2018-08-16T07:04:18.103Z,6.40
2018-08-16T07:06:46.482Z,6.87
2018-08-16T07:09:14.813Z,6.00
2018-08-16T07:11:43.247Z,6.40
2018-08-16T07:14:12.014Z,6.10
2018-08-16T07:16:40.427Z,5.50
2018-08-16T07:19:08.816Z,6.47
2018-08-16T07:21:37.819Z,6.30
2018-08-16T07:24:06.224Z,6.23
2018-08-16T07:26:34.580Z,6.20
2018-08-16T07:29:03.474Z,5.83
2018-08-16T07:31:31.968Z,5.33
2018-08-16T07:34:01.094Z,5.70
2018-08-16T07:36:29.745Z,4.97
2018-08-16T07:38:58.968Z,5.00
2018-08-16T07:41:27.425Z,4.83
2018-08-16T07:43:55.809Z,4.80
2018-08-16T07:46:24.145Z,4.33
2018-08-16T07:48:52.535Z,4.17
2018-08-16T07:51:21.706Z,4.90
2018-08-16T07:53:50.086Z,4.87
2018-08-16T07:56:18.635Z,5.60
2018-08-16T07:58:53.689Z,4.30
2018-08-16T08:01:22.001Z,5.13
2018-08-16T08:03:50.382Z,4.70
2018-08-16T08:06:18.810Z,4.10
2018-08-16T08:08:47.474Z,4.00
2018-08-16T08:11:15.918Z,4.53
2018-08-16T08:13:45.824Z,4.47
2018-08-16T08:16:14.298Z,4.03
2018-08-16T08:18:42.573Z,3.90
2018-08-16T08:21:11.088Z,3.80
2018-08-16T08:24:04.485Z,4.30
2018-08-16T08:26:32.885Z,3.97
2018-08-16T08:29:01.296Z,4.13
2018-08-16T08:31:29.672Z,3.87
2018-08-16T08:33:58.750Z,3.67
2018-08-16T08:36:38.671Z,3.87
2018-08-16T08:39:08.636Z,3.70
2018-08-16T08:41:37.106Z,3.87
2018-08-16T08:44:19.461Z,4.13
2018-08-16T08:46:49.128Z,3.67
2018-08-16T08:49:17.767Z,3.90
2018-08-16T08:51:46.351Z,4.43
2018-08-16T08:54:35.012Z,3.93
2018-08-16T08:57:14.846Z,4.37
2018-08-16T08:59:43.469Z,4.00
2018-08-16T09:02:12.545Z,3.43
2018-08-16T09:04:40.921Z,3.60
2018-08-16T09:07:10.727Z,3.53
2018-08-16T09:10:43.321Z,3.57
2018-08-16T09:13:23.073Z,3.67
2018-08-16T09:15:51.430Z,3.57
2018-08-16T09:18:20.062Z,3.50
2018-08-16T09:20:48.479Z,3.87
2018-08-16T09:23:16.853Z,3.83
2018-08-16T09:25:45.156Z,3.67
2018-08-16T09:28:13.552Z,3.83
2018-08-16T09:30:53.271Z,3.70
2018-08-16T09:33:33.010Z,3.50
2018-08-16T09:36:01.381Z,3.40
2018-08-16T09:38:29.875Z,3.07
2018-08-16T09:40:58.195Z,3.00
2018-08-16T09:43:26.642Z,2.60
2018-08-16T09:47:06.464Z,3.17
2018-08-16T09:49:39.535Z,2.80
2018-08-16T09:52:08.847Z,3.27
2018-08-16T09:54:37.341Z,3.37
2018-08-16T09:57:07.253Z,2.70
2018-08-16T09:59:35.638Z,2.70
2018-08-16T10:02:05.102Z,3.03
2018-08-16T10:04:33.675Z,2.70
2018-08-16T10:07:02.285Z,2.90
2018-08-16T10:09:31.518Z,2.50
2018-08-16T10:12:01.027Z,2.67
2018-08-16T10:14:29.398Z,2.63
2018-08-16T10:16:57.996Z,2.90
2018-08-16T10:19:29.040Z,2.80
2018-08-16T10:21:58.503Z,2.57
2018-08-16T10:24:28.538Z,3.07
2018-08-16T10:26:59.432Z,2.90
2018-08-16T10:29:29.858Z,2.77
2018-08-16T10:32:00.046Z,2.53
2018-08-16T10:34:30.180Z,2.67
2018-08-16T10:37:00.168Z,2.73
2018-08-16T10:39:29.640Z,2.40
2018-08-16T10:41:58.119Z,3.53
2018-08-16T10:44:26.442Z,3.13
2018-08-16T10:46:54.841Z,4.67
2018-08-16T10:49:23.129Z,2.70
2018-08-16T10:51:51.622Z,3.07
2018-08-16T10:54:19.900Z,2.70
2018-08-16T10:56:48.213Z,3.00
2018-08-16T10:59:16.548Z,2.83
2018-08-16T11:01:44.867Z,2.53
2018-08-16T11:04:13.966Z,2.87
2018-08-16T11:06:42.339Z,3.90
2018-08-16T11:09:10.879Z,2.53
2018-08-16T11:11:39.633Z,2.60
2018-08-16T11:14:08.708Z,3.00
2018-08-16T11:16:37.058Z,2.87
2018-08-16T11:19:05.673Z,2.83
2018-08-16T11:21:34.132Z,2.67
2018-08-16T11:24:02.544Z,2.57
2018-08-16T11:26:30.831Z,2.50
2018-08-16T11:28:59.339Z,2.40
2018-08-16T11:31:27.653Z,2.97
2018-08-16T11:33:56.154Z,2.97
2018-08-16T11:36:24.510Z,2.40
2018-08-16T11:38:53.946Z,2.53
2018-08-16T11:41:22.337Z,2.57
2018-08-16T11:43:50.692Z,2.30
2018-08-16T11:46:19.015Z,2.77
2018-08-16T11:48:47.587Z,2.57
2018-08-16T11:51:16.214Z,2.47
2018-08-16T11:53:44.936Z,3.40
2018-08-16T11:56:13.462Z,2.73
2018-08-16T11:58:41.853Z,2.27
2018-08-16T12:01:10.270Z,2.33
2018-08-16T12:03:39.166Z,2.53
2018-08-16T12:06:09.061Z,2.70
2018-08-16T12:08:39.653Z,2.53
2018-08-16T12:11:08.621Z,2.70
2018-08-16T12:13:37.030Z,2.77
2018-08-16T12:16:05.402Z,2.40
2018-08-16T12:18:33.888Z,2.70
2018-08-16T12:21:02.380Z,2.50
2018-08-16T12:23:30.777Z,2.50
2018-08-16T12:25:59.176Z,3.73
2018-08-16T12:28:27.622Z,2.50
2018-08-16T12:30:55.989Z,2.20
2018-08-16T12:33:24.634Z,2.40
2018-08-16T12:35:53.899Z,3.30
2018-08-16T12:38:22.220Z,2.47
2018-08-16T12:40:50.590Z,2.60
2018-08-16T12:43:18.979Z,2.77
2018-08-16T12:45:47.371Z,3.13
2018-08-16T12:48:16.069Z,2.63
2018-08-16T12:50:44.435Z,2.50
2018-08-16T12:53:13.036Z,2.40
2018-08-16T12:55:41.435Z,2.20
2018-08-16T12:58:09.788Z,3.00
2018-08-16T13:00:38.106Z,2.40
2018-08-16T13:03:06.710Z,2.47
2018-08-16T13:05:35.121Z,2.37
2018-08-16T13:08:03.836Z,3.03
2018-08-16T13:10:32.310Z,2.83
2018-08-16T13:13:00.630Z,2.60
2018-08-16T13:15:29.011Z,2.53
2018-08-16T13:17:57.381Z,3.30
2018-08-16T13:20:25.719Z,2.47
2018-08-16T13:22:54.064Z,3.20
2018-08-16T13:25:22.516Z,2.60
2018-08-16T13:27:50.939Z,2.40
2018-08-16T13:30:19.371Z,2.73
2018-08-16T13:32:47.754Z,2.70
2018-08-16T13:35:16.147Z,3.00
2018-08-16T13:37:44.550Z,2.40
2018-08-16T13:40:12.935Z,2.33
2018-08-16T13:42:41.310Z,2.50
2018-08-16T13:45:09.689Z,2.93
2018-08-16T13:47:38.157Z,2.67
2018-08-16T13:50:06.496Z,2.53
2018-08-16T13:52:35.021Z,2.47
2018-08-16T13:55:03.465Z,2.90
2018-08-16T13:57:31.795Z,2.43
2018-08-16T14:00:00.093Z,2.50
2018-08-16T14:02:29.166Z,2.83
2018-08-16T14:04:58.133Z,2.90
2018-08-16T14:07:26.510Z,2.80
2018-08-16T14:09:55.970Z,2.67
2018-08-16T14:12:24.319Z,2.70
2018-08-16T14:14:52.813Z,3.03
2018-08-16T14:17:21.315Z,2.73
2018-08-16T14:19:49.771Z,2.83
2018-08-16T14:22:18.136Z,2.60
2018-08-16T14:24:46.726Z,2.60
2018-08-16T14:27:15.055Z,2.77
2018-08-16T14:29:43.557Z,2.90
2018-08-16T14:32:11.973Z,2.50
2018-08-16T14:34:40.341Z,2.93
2018-08-16T14:37:08.746Z,2.70
2018-08-16T14:39:37.178Z,3.10
2018-08-16T14:42:05.554Z,3.50
2018-08-16T14:44:33.941Z,3.43
2018-08-16T14:47:02.347Z,3.40
2018-08-16T14:49:30.755Z,4.83
2018-08-16T14:51:59.965Z,3.30
2018-08-16T14:54:28.389Z,3.20
2018-08-16T14:56:56.827Z,3.23
2018-08-16T14:59:25.199Z,2.80
2018-08-16T15:01:54.209Z,2.87
2018-08-16T15:04:22.610Z,3.10
2018-08-16T15:06:50.986Z,3.97
2018-08-16T15:09:19.450Z,2.80
2018-08-16T15:11:47.849Z,2.80
2018-08-16T15:14:16.175Z,3.13
2018-08-16T15:16:44.548Z,3.20
2018-08-16T15:19:12.985Z,2.70
2018-08-16T15:21:41.361Z,3.13
2018-08-16T15:24:09.721Z,3.13
2018-08-16T15:26:38.227Z,3.27
2018-08-16T15:29:06.627Z,3.37
2018-08-16T15:31:35.021Z,3.67
2018-08-16T15:34:03.390Z,3.07
2018-08-16T15:36:31.741Z,3.40
2018-08-16T15:39:00.121Z,3.70
2018-08-16T15:41:28.599Z,3.43
2018-08-16T15:43:57.629Z,3.20
2018-08-16T15:46:26.040Z,2.80
2018-08-16T15:48:54.423Z,3.20
2018-08-16T15:51:22.807Z,3.10
2018-08-16T15:53:51.284Z,3.23
2018-08-16T15:56:19.949Z,4.00
2018-08-16T15:58:48.415Z,3.47
2018-08-16T16:01:16.996Z,3.13
2018-08-16T16:03:45.503Z,3.53
2018-08-16T16:06:13.969Z,3.90
2018-08-16T16:08:43.126Z,3.50
2018-08-16T16:11:11.945Z,3.43
2018-08-16T16:13:40.919Z,3.73
2018-08-16T16:16:09.356Z,5.63
2018-08-16T16:18:37.722Z,3.43
2018-08-16T16:21:06.022Z,3.30
2018-08-16T16:23:35.141Z,3.10
2018-08-16T16:26:03.492Z,2.93
2018-08-16T16:28:32.028Z,2.97
2018-08-16T16:31:00.439Z,3.63
2018-08-16T16:33:28.761Z,3.57
2018-08-16T16:35:57.215Z,3.30
2018-08-16T16:38:25.569Z,3.80
2018-08-16T16:40:54.012Z,3.40
2018-08-16T16:43:22.401Z,3.00
2018-08-16T16:45:51.767Z,3.37
2018-08-16T16:48:20.908Z,3.13
2018-08-16T16:50:49.290Z,3.30
2018-08-16T16:53:17.775Z,3.23
2018-08-16T16:55:46.763Z,3.87
2018-08-16T16:58:15.722Z,3.30
2018-08-16T17:00:44.152Z,3.17
2018-08-16T17:03:12.583Z,3.20
2018-08-16T17:05:41.008Z,3.20
2018-08-16T17:08:09.375Z,3.50
2018-08-16T17:10:37.924Z,3.20
2018-08-16T17:13:06.834Z,4.10
2018-08-16T17:15:35.224Z,4.00
2018-08-16T17:18:03.557Z,3.40
2018-08-16T17:20:32.129Z,3.60
2018-08-16T17:23:00.515Z,4.13
2018-08-16T17:25:28.918Z,7.73
2018-08-16T17:27:57.339Z,5.20
2018-08-16T17:30:26.563Z,4.90
2018-08-16T17:32:54.935Z,3.50
2018-08-16T17:35:23.566Z,3.80
2018-08-16T17:37:51.987Z,4.03
2018-08-16T17:40:20.426Z,4.30
2018-08-16T17:42:48.777Z,4.27
2018-08-16T17:45:17.301Z,4.40
2018-08-16T17:47:45.658Z,3.80
2018-08-16T17:50:14.455Z,3.70
2018-08-16T17:52:43.063Z,4.27
2018-08-16T17:55:11.379Z,4.43
2018-08-16T17:57:41.096Z,4.60
2018-08-16T18:00:10.258Z,5.27
2018-08-16T18:02:38.755Z,4.30
2018-08-16T18:05:07.135Z,4.03
2018-08-16T18:07:35.600Z,4.73
2018-08-16T18:10:04.914Z,4.43
2018-08-16T18:12:33.271Z,4.20
2018-08-16T18:15:01.720Z,3.97
2018-08-16T18:17:30.323Z,4.27
2018-08-16T18:19:58.697Z,4.27
2018-08-16T18:22:27.247Z,7.97
2018-08-16T18:24:55.630Z,4.00
2018-08-16T18:27:24.032Z,4.17
2018-08-16T18:29:52.506Z,3.63
2018-08-16T18:32:20.920Z,3.70
2018-08-16T18:34:49.717Z,4.33
2018-08-16T18:37:18.087Z,4.20
2018-08-16T18:39:46.479Z,4.20
2018-08-16T18:42:14.946Z,4.10
2018-08-16T18:44:44.701Z,4.03
2018-08-16T18:47:13.343Z,4.33
2018-08-16T18:49:42.319Z,4.63
2018-08-16T18:52:10.648Z,34.73
2018-08-16T18:54:39.778Z,18.23
2018-08-16T18:57:08.318Z,4.40
2018-08-16T18:59:36.744Z,5.10
2018-08-16T19:02:05.077Z,4.10
2018-08-16T19:04:33.459Z,4.10
2018-08-16T19:07:02.011Z,4.27
2018-08-16T19:09:30.395Z,4.23
2018-08-16T19:11:59.078Z,4.80
2018-08-16T19:14:27.496Z,4.60
2018-08-16T19:16:56.655Z,5.30
2018-08-16T19:19:24.974Z,4.37
2018-08-16T19:21:53.328Z,4.40
2018-08-16T19:24:21.808Z,4.33
2018-08-16T19:26:50.288Z,4.23
2018-08-16T19:29:18.790Z,4.23
2018-08-16T19:31:47.846Z,4.27
2018-08-16T19:34:16.247Z,4.50
2018-08-16T19:36:44.789Z,4.43
2018-08-16T19:39:13.678Z,4.30
2018-08-16T19:41:42.219Z,3.80
2018-08-16T19:44:10.609Z,4.40
2018-08-16T19:46:39.022Z,4.57
2018-08-16T19:49:07.434Z,4.60
2018-08-16T19:51:35.740Z,4.80
2018-08-16T19:54:04.153Z,4.30
2018-08-16T19:56:32.611Z,4.27
2018-08-16T19:59:01.273Z,4.47
2018-08-16T20:01:30.350Z,4.67
2018-08-16T20:03:58.717Z,5.00
2018-08-16T20:06:29.256Z,4.10
2018-08-16T20:08:57.865Z,4.13
2018-08-16T20:11:26.235Z,4.50
2018-08-16T20:14:03.370Z,5.67
2018-08-16T20:16:31.652Z,4.53
2018-08-16T20:19:00.003Z,4.67
2018-08-16T20:21:28.302Z,4.10
2018-08-16T20:23:58.445Z,4.70
2018-08-16T20:26:26.870Z,4.90
2018-08-16T20:28:56.083Z,5.30
2018-08-16T20:31:25.181Z,4.70
2018-08-16T20:33:54.652Z,4.37
2018-08-16T20:36:25.129Z,4.20
2018-08-16T20:38:53.489Z,5.00
2018-08-16T20:41:22.862Z,4.37
2018-08-16T20:43:51.222Z,4.60
2018-08-16T20:46:21.110Z,4.90
2018-08-16T20:48:49.524Z,4.63
2018-08-16T20:51:18.131Z,4.23
2018-08-16T20:53:48.549Z,4.53
2018-08-16T20:56:16.965Z,4.10
2018-08-16T20:58:46.025Z,4.43
2018-08-16T21:01:14.381Z,4.27
2018-08-16T21:03:43.010Z,4.43
2018-08-16T21:06:11.361Z,4.70
2018-08-16T21:08:40.267Z,4.33
2018-08-16T21:11:08.942Z,4.27
2018-08-16T21:13:39.131Z,4.73
2018-08-16T21:16:07.801Z,4.37
2018-08-16T21:18:36.993Z,4.70
2018-08-16T21:21:05.958Z,3.90
2018-08-16T21:23:34.655Z,4.17
2018-08-16T21:26:03.398Z,4.37
2018-08-16T21:28:31.882Z,5.17
2018-08-16T21:31:00.305Z,4.47
2018-08-16T21:33:29.146Z,4.57
2018-08-16T21:35:57.644Z,4.27
2018-08-16T21:38:26.099Z,4.50
2018-08-16T21:40:54.567Z,5.17
2018-08-16T21:43:24.783Z,4.80
2018-08-16T21:45:53.352Z,4.50
2018-08-16T21:48:22.566Z,4.03
2018-08-16T21:50:51.054Z,4.63
2018-08-16T21:53:19.614Z,4.30
2018-08-16T21:55:47.913Z,4.30
2018-08-16T21:58:16.478Z,4.17
2018-08-16T22:00:55.524Z,4.50
2018-08-16T22:03:25.330Z,4.57
2018-08-16T22:05:59.920Z,4.03
2018-08-16T22:08:41.488Z,4.20
2018-08-16T22:11:09.875Z,4.63
2018-08-16T22:13:38.715Z,3.93
2018-08-16T22:16:07.127Z,4.30
2018-08-16T22:18:35.787Z,4.27
2018-08-16T22:21:04.630Z,4.30
2018-08-16T22:23:33.062Z,4.07
2018-08-16T22:26:02.182Z,4.67
2018-08-16T22:28:30.587Z,4.73
2018-08-16T22:30:59.392Z,4.20
2018-08-16T22:33:27.786Z,4.50
2018-08-16T22:35:57.266Z,4.70
2018-08-16T22:38:28.271Z,4.60
2018-08-16T22:40:56.642Z,4.57
2018-08-16T22:43:25.083Z,4.33
2018-08-16T22:45:54.072Z,4.70
2018-08-16T22:48:22.403Z,4.67
2018-08-16T22:50:50.665Z,4.37
2018-08-16T22:53:19.365Z,4.07
2018-08-16T22:55:47.728Z,4.10
2018-08-16T22:58:16.111Z,4.23
2018-08-16T23:00:44.592Z,4.60
2018-08-16T23:03:12.904Z,5.03
2018-08-16T23:05:41.311Z,4.23
2018-08-16T23:08:09.677Z,3.80
2018-08-16T23:10:38.069Z,4.20
2018-08-16T23:13:06.656Z,4.60
2018-08-16T23:15:35.587Z,4.50
2018-08-16T23:18:04.832Z,3.80
2018-08-16T23:20:33.630Z,3.97
2018-08-16T23:23:02.049Z,4.37
2018-08-16T23:25:30.430Z,4.20
2018-08-16T23:27:58.773Z,4.03
2018-08-16T23:30:27.070Z,4.07
2018-08-16T23:32:55.394Z,4.20
2018-08-16T23:35:23.704Z,4.00
2018-08-16T23:37:52.009Z,3.80
2018-08-16T23:40:20.411Z,3.77
2018-08-16T23:42:48.796Z,3.90
2018-08-16T23:45:17.158Z,4.07
2018-08-16T23:47:56.907Z,4.00
2018-08-16T23:50:25.265Z,3.70
2018-08-16T23:52:53.595Z,4.00
2018-08-16T23:55:23.267Z,3.60
2018-08-16T23:57:52.658Z,4.10
